createdAt,value
2023-04-17T00:01:45.800Z,100592.03
2023-04-17T00:04:13.592Z,100591.19
2023-04-17T00:06:43.426Z,100588.16
2023-04-17T00:09:11.536Z,100584.91
2023-04-17T00:11:39.855Z,100581.81
2023-04-17T00:14:07.602Z,100597.22
2023-04-17T00:16:35.182Z,100586.31
2023-04-17T00:19:04.170Z,100584.91
2023-04-17T00:21:32.273Z,100584.91
2023-04-17T00:23:59.738Z,100588.22
2023-04-17T00:26:27.348Z,100591.81
2023-04-17T00:28:54.828Z,100593.41
2023-04-17T00:31:22.351Z,100586.53
2023-04-17T00:33:49.840Z,100596.28
2023-04-17T00:36:18.616Z,100587.38
2023-04-17T00:38:46.123Z,100588.88
2023-04-17T00:41:13.579Z,100584.91
2023-04-17T00:43:41.119Z,100588.22
2023-04-17T00:46:08.861Z,100582.97
2023-04-17T00:48:37.865Z,100582.31
2023-04-17T00:51:05.579Z,100581.28
2023-04-17T00:53:35.175Z,100585.72
2023-04-17T00:56:05.166Z,100581.06
2023-04-17T00:58:33.473Z,100584.91
2023-04-17T01:01:01.067Z,100585.88
2023-04-17T01:03:29.536Z,100582.31
2023-04-17T01:05:57.381Z,100579.03
2023-04-17T01:08:24.959Z,100574.47
2023-04-17T01:10:53.731Z,100583.44
2023-04-17T01:13:21.282Z,100579.94
2023-04-17T01:15:48.732Z,100569.16
2023-04-17T01:18:16.430Z,100574.84
2023-04-17T01:20:43.917Z,100571.13
2023-04-17T01:23:11.673Z,100576.53
2023-04-17T01:25:40.899Z,100579.13
2023-04-17T01:28:09.368Z,100574.81
2023-04-17T01:30:36.923Z,100578.09
2023-04-17T01:33:04.575Z,100572.53
2023-04-17T01:35:32.051Z,100574.00
2023-04-17T01:37:59.475Z,100577.06
2023-04-17T01:40:26.964Z,100573.72
2023-04-17T01:42:55.768Z,100577.19
2023-04-17T01:45:23.203Z,100579.81
2023-04-17T01:47:50.725Z,100583.34
2023-04-17T01:50:18.445Z,100580.66
2023-04-17T01:52:46.191Z,100578.81
2023-04-17T01:55:13.791Z,100586.09
2023-04-17T01:57:42.291Z,100584.38
2023-04-17T02:00:12.113Z,100587.31
2023-04-17T02:02:39.635Z,100584.88
2023-04-17T02:05:08.058Z,100587.53
2023-04-17T02:07:35.504Z,100586.78
2023-04-17T02:10:02.970Z,100585.88
2023-04-17T02:12:30.500Z,100589.06
2023-04-17T02:15:00.857Z,100585.63
2023-04-17T02:17:29.734Z,100584.44
2023-04-17T02:19:57.298Z,100586.34
2023-04-17T02:22:24.763Z,100587.00
2023-04-17T02:24:52.201Z,100583.56
2023-04-17T02:27:19.610Z,100593.41
2023-04-17T02:29:47.198Z,100591.22
2023-04-17T02:32:16.177Z,100588.66
2023-04-17T02:34:45.135Z,100590.66
2023-04-17T02:37:12.634Z,100590.41
2023-04-17T02:39:40.116Z,100589.88
2023-04-17T02:42:07.598Z,100591.41
2023-04-17T02:44:35.104Z,100586.75
2023-04-17T02:47:02.726Z,100593.91
2023-04-17T02:49:30.284Z,100586.31
2023-04-17T02:51:59.275Z,100589.78
2023-04-17T02:54:26.809Z,100587.00
2023-04-17T02:56:58.292Z,100589.84
2023-04-17T02:59:26.155Z,100588.03
2023-04-17T03:01:53.756Z,100591.63
2023-04-17T03:04:22.104Z,100585.44
2023-04-17T03:06:49.631Z,100594.78
2023-04-17T03:09:20.768Z,100596.31
2023-04-17T03:11:48.231Z,100590.66
2023-04-17T03:14:15.801Z,100595.41
2023-04-17T03:16:43.526Z,100585.75
2023-04-17T03:19:11.239Z,100591.38
2023-04-17T03:21:38.862Z,100592.84
2023-04-17T03:24:07.010Z,100604.06
2023-04-17T03:26:36.251Z,100607.06
2023-04-17T03:29:03.788Z,100601.56
2023-04-17T03:31:31.223Z,100607.78
2023-04-17T03:33:58.707Z,100598.75
2023-04-17T03:36:27.042Z,100603.09
2023-04-17T03:38:55.754Z,100605.75
2023-04-17T03:41:23.267Z,100601.69
2023-04-17T03:43:52.117Z,100606.88
2023-04-17T03:46:19.606Z,100599.94
2023-04-17T03:48:47.084Z,100606.94
2023-04-17T03:51:16.071Z,100608.59
2023-04-17T03:53:43.573Z,100612.53
2023-04-17T03:56:11.421Z,100607.31
2023-04-17T03:58:38.893Z,100608.53
2023-04-17T04:01:10.927Z,100610.22
2023-04-17T04:03:38.727Z,100610.88
2023-04-17T04:06:07.231Z,100615.84
2023-04-17T04:08:34.824Z,100621.38
2023-04-17T04:11:03.157Z,100613.06
2023-04-17T04:13:30.617Z,100616.50
2023-04-17T04:15:58.080Z,100625.84
2023-04-17T04:18:26.935Z,100620.25
2023-04-17T04:20:54.522Z,100624.47
2023-04-17T04:23:22.012Z,100619.25
2023-04-17T04:25:50.323Z,100622.06
2023-04-17T04:28:18.148Z,100624.72
2023-04-17T04:30:50.794Z,100627.25
2023-04-17T04:33:19.977Z,100637.78
2023-04-17T04:35:49.163Z,100629.38
2023-04-17T04:38:17.078Z,100635.59
2023-04-17T04:40:52.124Z,100628.88
2023-04-17T04:43:22.171Z,100633.16
2023-04-17T04:45:50.005Z,100635.81
2023-04-17T04:48:17.444Z,100637.13
2023-04-17T04:50:44.964Z,100638.91
2023-04-17T04:53:13.821Z,100642.28
2023-04-17T04:55:41.386Z,100641.56
2023-04-17T04:58:08.869Z,100641.34
2023-04-17T05:00:36.444Z,100647.19
2023-04-17T05:03:04.768Z,100642.41
2023-04-17T05:05:32.699Z,100644.63
2023-04-17T05:08:00.170Z,100645.16
2023-04-17T05:10:28.984Z,100653.13
2023-04-17T05:12:56.501Z,100653.03
2023-04-17T05:15:24.175Z,100658.94
2023-04-17T05:17:51.787Z,100666.59
2023-04-17T05:20:19.401Z,100663.38
2023-04-17T05:22:46.975Z,100664.13
2023-04-17T05:25:16.152Z,100669.66
2023-04-17T05:27:45.213Z,100667.19
2023-04-17T05:30:13.968Z,100665.09
2023-04-17T05:32:41.685Z,100667.34
2023-04-17T05:35:09.802Z,100659.00
2023-04-17T05:37:37.400Z,100673.81
2023-04-17T05:40:07.003Z,100673.16
2023-04-17T05:42:34.990Z,100671.78
2023-04-17T05:45:04.791Z,100673.78
2023-04-17T05:47:32.302Z,100670.41
2023-04-17T05:49:59.930Z,100675.56
2023-04-17T05:52:27.406Z,100681.06
2023-04-17T05:54:54.840Z,100677.22
2023-04-17T05:57:22.277Z,100670.28
2023-04-17T05:59:49.952Z,100674.66
2023-04-17T06:02:18.889Z,100683.66
2023-04-17T06:04:47.341Z,100677.47
2023-04-17T06:07:14.917Z,100680.25
2023-04-17T06:09:42.360Z,100683.31
2023-04-17T06:12:15.707Z,100686.84
2023-04-17T06:14:44.010Z,100686.63
2023-04-17T06:17:12.492Z,100687.19
2023-04-17T06:19:41.346Z,100679.06
2023-04-17T06:22:08.798Z,100694.88
2023-04-17T06:24:36.871Z,100692.09
2023-04-17T06:27:04.632Z,100687.19
2023-04-17T06:29:32.074Z,100697.28
2023-04-17T06:31:59.493Z,100700.03
2023-04-17T06:34:26.943Z,100689.03
2023-04-17T06:36:55.785Z,100699.03
2023-04-17T06:39:23.272Z,100698.16
2023-04-17T06:41:50.833Z,100699.75
2023-04-17T06:44:18.256Z,100708.97
2023-04-17T06:46:45.979Z,100706.13
2023-04-17T06:49:13.746Z,100711.00
2023-04-17T06:51:45.633Z,100708.69
2023-04-17T06:54:14.752Z,100714.19
2023-04-17T06:56:42.193Z,100721.47
2023-04-17T06:59:09.897Z,100715.19
2023-04-17T07:01:38.863Z,100722.38
2023-04-17T07:04:08.269Z,100721.63
2023-04-17T07:06:36.455Z,100724.72
2023-04-17T07:09:04.204Z,100727.78
2023-04-17T07:11:33.309Z,100728.06
2023-04-17T07:14:01.067Z,100730.69
2023-04-17T07:16:28.632Z,100734.72
2023-04-17T07:18:56.114Z,100743.78
2023-04-17T07:21:23.623Z,100741.63
2023-04-17T07:23:51.084Z,100743.34
2023-04-17T07:26:18.573Z,100750.38
2023-04-17T07:28:47.645Z,100752.19
2023-04-17T07:31:15.157Z,100751.38
2023-04-17T07:33:42.728Z,100752.19
2023-04-17T07:36:11.230Z,100756.34
2023-04-17T07:38:40.900Z,100757.09
2023-04-17T07:41:08.528Z,100760.09
2023-04-17T07:43:35.972Z,100751.75
2023-04-17T07:46:04.916Z,100758.06
2023-04-17T07:48:32.412Z,100761.13
2023-04-17T07:51:00.419Z,100753.72
2023-04-17T07:53:28.441Z,100759.81
2023-04-17T07:55:56.071Z,100764.69
2023-04-17T07:58:24.001Z,100766.13
2023-04-17T08:00:51.936Z,100762.97
2023-04-17T08:03:24.231Z,100758.00
2023-04-17T08:05:53.859Z,100759.75
2023-04-17T08:08:22.804Z,100762.91
2023-04-17T08:10:50.574Z,100768.50
2023-04-17T08:13:18.063Z,100770.81
2023-04-17T08:15:45.780Z,100777.31
2023-04-17T08:18:13.805Z,100781.72
2023-04-17T08:20:42.845Z,100777.72
2023-04-17T08:23:10.348Z,100774.25
2023-04-17T08:25:37.888Z,100785.50
2023-04-17T08:28:05.706Z,100778.72
2023-04-17T08:30:33.241Z,100784.75
2023-04-17T08:33:00.858Z,100784.47
2023-04-17T08:35:28.357Z,100781.53
2023-04-17T08:37:59.044Z,100776.56
2023-04-17T08:40:27.048Z,100783.06
2023-04-17T08:42:55.276Z,100780.34
2023-04-17T08:45:24.943Z,100776.03
2023-04-17T08:47:52.616Z,100781.97
2023-04-17T08:50:21.931Z,100780.56
2023-04-17T08:52:51.388Z,100786.28
2023-04-17T08:55:22.379Z,100778.25
2023-04-17T08:58:01.383Z,100786.41
2023-04-17T09:00:31.072Z,100787.50
2023-04-17T09:03:00.383Z,100782.81
2023-04-17T09:05:33.084Z,100792.19
2023-04-17T09:08:09.252Z,100792.78
2023-04-17T09:10:39.072Z,100789.84
2023-04-17T09:13:07.445Z,100792.66
2023-04-17T09:15:36.010Z,100792.75
2023-04-17T09:18:03.715Z,100792.41
2023-04-17T09:20:31.230Z,100794.81
2023-04-17T09:23:01.274Z,100792.47
2023-04-17T09:25:28.930Z,100788.44
2023-04-17T09:28:09.534Z,100801.41
2023-04-17T09:30:38.777Z,100793.66
2023-04-17T09:33:07.721Z,100792.81
2023-04-17T09:35:39.928Z,100788.16
2023-04-17T09:38:07.954Z,100791.09
2023-04-17T09:40:39.507Z,100801.53
2023-04-17T09:43:10.531Z,100802.59
2023-04-17T09:45:42.143Z,100798.41
2023-04-17T09:48:12.150Z,100802.78
2023-04-17T09:50:40.445Z,100796.78
2023-04-17T09:53:09.144Z,100801.16
2023-04-17T09:55:37.789Z,100802.03
2023-04-17T09:58:10.801Z,100804.91
2023-04-17T10:00:42.612Z,100805.50
2023-04-17T10:03:10.697Z,100796.44
2023-04-17T10:05:38.893Z,100806.53
2023-04-17T10:08:07.141Z,100797.47
2023-04-17T10:10:36.257Z,100796.94
2023-04-17T10:13:05.292Z,100799.25
2023-04-17T10:15:35.135Z,100799.53
2023-04-17T10:18:24.331Z,100799.31
2023-04-17T10:20:54.310Z,100787.47
2023-04-17T10:23:40.004Z,100782.91
2023-04-17T10:26:40.615Z,100787.59
2023-04-17T10:29:08.172Z,100777.78
2023-04-17T10:32:25.848Z,100772.19
2023-04-17T10:34:56.945Z,100775.16
2023-04-17T10:38:03.352Z,100758.66
2023-04-17T10:40:32.041Z,100771.81
2023-04-17T10:43:07.335Z,100769.41
2023-04-17T10:45:55.151Z,100760.84
2023-04-17T10:48:26.448Z,100764.50
2023-04-17T10:50:55.979Z,100762.66
2023-04-17T10:53:40.679Z,100764.66
2023-04-17T10:56:08.621Z,100751.25
2023-04-17T10:58:39.044Z,100758.94
2023-04-17T11:01:12.008Z,100761.56
2023-04-17T11:03:40.152Z,100745.34
2023-04-17T11:06:10.110Z,100754.75
2023-04-17T11:08:37.590Z,100749.19
2023-04-17T11:11:05.081Z,100752.41
2023-04-17T11:13:34.782Z,100749.63
2023-04-17T11:16:04.612Z,100751.78
2023-04-17T11:18:32.337Z,100757.97
2023-04-17T11:20:59.793Z,100764.97
2023-04-17T11:23:34.438Z,100768.03
2023-04-17T11:26:01.962Z,100759.56
2023-04-17T11:28:29.852Z,100762.84
2023-04-17T11:30:57.392Z,100752.81
2023-04-17T11:33:24.958Z,100760.28
2023-04-17T11:35:52.876Z,100758.47
2023-04-17T11:38:22.159Z,100753.81
2023-04-17T11:40:53.790Z,100764.53
2023-04-17T11:43:22.688Z,100761.78
2023-04-17T11:45:52.514Z,100767.31
2023-04-17T11:48:23.315Z,100754.03
2023-04-17T11:50:54.776Z,100760.00
2023-04-17T11:53:22.292Z,100752.41
2023-04-17T11:56:18.838Z,100755.00
2023-04-17T11:58:48.046Z,100755.16
2023-04-17T12:01:15.777Z,100746.81
2023-04-17T12:03:45.447Z,100748.84
2023-04-17T12:06:13.256Z,100747.50
2023-04-17T12:08:46.929Z,100750.44
2023-04-17T12:11:25.593Z,100759.41
2023-04-17T12:13:53.473Z,100759.72
2023-04-17T12:16:21.361Z,100757.38
2023-04-17T12:18:49.130Z,100750.28
2023-04-17T12:21:16.785Z,100750.06
2023-04-17T12:23:44.488Z,100749.63
2023-04-17T12:26:11.945Z,100750.19
2023-04-17T12:28:40.813Z,100754.09
2023-04-17T12:31:08.523Z,100746.53
2023-04-17T12:33:35.986Z,100745.16
2023-04-17T12:36:05.265Z,100748.75
2023-04-17T12:38:33.214Z,100756.94
2023-04-17T12:41:00.781Z,100751.22
2023-04-17T12:43:28.260Z,100741.44
2023-04-17T12:45:58.246Z,100746.41
2023-04-17T12:48:26.101Z,100749.97
2023-04-17T12:50:54.360Z,100740.56
2023-04-17T12:53:21.820Z,100743.88
2023-04-17T12:55:49.308Z,100729.69
2023-04-17T12:58:16.871Z,100731.50
2023-04-17T13:00:44.565Z,100736.13
2023-04-17T13:03:13.630Z,100741.56
2023-04-17T13:05:41.309Z,100738.91
2023-04-17T13:08:12.332Z,100748.13
2023-04-17T13:10:40.189Z,100734.06
2023-04-17T13:13:08.135Z,100728.06
2023-04-17T13:15:35.948Z,100727.78
2023-04-17T13:18:03.867Z,100721.72
2023-04-17T13:20:32.814Z,100720.72
2023-04-17T13:23:00.283Z,100722.84
2023-04-17T13:25:27.812Z,100721.78
2023-04-17T13:27:55.582Z,100723.72
2023-04-17T13:30:23.364Z,100732.47
2023-04-17T13:32:50.881Z,100729.59
2023-04-17T13:35:18.705Z,100722.66
2023-04-17T13:37:47.524Z,100724.19
2023-04-17T13:40:17.306Z,100718.03
2023-04-17T13:42:45.083Z,100728.16
2023-04-17T13:45:13.310Z,100717.06
2023-04-17T13:47:40.858Z,100722.66
2023-04-17T13:50:10.056Z,100711.22
2023-04-17T13:52:37.542Z,100718.53
2023-04-17T13:55:11.656Z,100715.94
2023-04-17T13:57:39.209Z,100714.69
2023-04-17T14:00:08.183Z,100698.00
2023-04-17T14:02:35.888Z,100703.81
2023-04-17T14:05:03.674Z,100706.69
2023-04-17T14:07:31.370Z,100699.53
2023-04-17T14:09:58.888Z,100716.34
2023-04-17T14:12:27.912Z,100713.50
2023-04-17T14:14:58.043Z,100713.72
2023-04-17T14:17:25.909Z,100710.81
2023-04-17T14:19:53.458Z,100716.09
2023-04-17T14:22:21.152Z,100706.88
2023-04-17T14:24:48.715Z,100707.28
2023-04-17T14:27:16.201Z,100694.00
2023-04-17T14:29:45.146Z,100693.97
2023-04-17T14:32:12.695Z,100697.19
2023-04-17T14:34:40.143Z,100690.91
2023-04-17T14:37:07.666Z,100689.56
2023-04-17T14:39:35.065Z,100687.06
2023-04-17T14:42:02.649Z,100689.56
2023-04-17T14:44:30.166Z,100684.81
2023-04-17T14:46:59.111Z,100688.78
2023-04-17T14:49:26.671Z,100684.19
2023-04-17T14:51:55.803Z,100693.75
2023-04-17T14:54:23.562Z,100693.47
2023-04-17T14:56:51.138Z,100685.16
2023-04-17T14:59:18.775Z,100674.56
2023-04-17T15:01:46.993Z,100681.50
2023-04-17T15:04:16.300Z,100673.41
2023-04-17T15:06:44.049Z,100671.50
2023-04-17T15:09:11.777Z,100673.72
2023-04-17T15:11:39.422Z,100667.41
2023-04-17T15:14:07.078Z,100684.19
2023-04-17T15:16:34.857Z,100680.75
2023-04-17T15:19:02.363Z,100683.97
2023-04-17T15:21:31.235Z,100679.59
2023-04-17T15:23:58.801Z,100664.84
2023-04-17T15:26:27.229Z,100662.06
2023-04-17T15:28:54.708Z,100665.44
2023-04-17T15:31:22.539Z,100657.84
2023-04-17T15:33:50.109Z,100671.50
2023-04-17T15:36:17.868Z,100661.41
2023-04-17T15:38:46.695Z,100656.28
2023-04-17T15:41:14.582Z,100655.28
2023-04-17T15:43:42.059Z,100655.41
2023-04-17T15:46:09.571Z,100655.13
2023-04-17T15:48:37.090Z,100657.25
2023-04-17T15:51:04.818Z,100654.72
2023-04-17T15:53:32.726Z,100645.22
2023-04-17T15:56:01.720Z,100654.78
2023-04-17T15:58:29.627Z,100647.84
2023-04-17T16:00:57.235Z,100653.00
2023-04-17T16:03:24.895Z,100656.94
2023-04-17T16:05:54.165Z,100654.59
2023-04-17T16:08:21.702Z,100660.59
2023-04-17T16:10:49.162Z,100652.16
2023-04-17T16:13:18.066Z,100645.16
2023-04-17T16:15:45.908Z,100646.03
2023-04-17T16:18:13.442Z,100641.00
2023-04-17T16:20:40.978Z,100640.72
2023-04-17T16:23:08.496Z,100644.72
2023-04-17T16:25:36.080Z,100643.31
2023-04-17T16:28:03.903Z,100642.53
2023-04-17T16:30:33.076Z,100640.88
2023-04-17T16:33:00.738Z,100635.81
2023-04-17T16:35:29.873Z,100645.75
2023-04-17T16:37:57.372Z,100635.72
2023-04-17T16:40:26.470Z,100637.25
2023-04-17T16:42:54.156Z,100639.09
2023-04-17T16:45:21.794Z,100634.66
2023-04-17T16:47:50.801Z,100628.06
2023-04-17T16:50:18.511Z,100630.47
2023-04-17T16:52:46.258Z,100635.72
2023-04-17T16:55:13.730Z,100644.47
2023-04-17T16:57:43.615Z,100649.50
2023-04-17T17:00:12.518Z,100637.13
2023-04-17T17:02:40.409Z,100644.63
2023-04-17T17:05:10.333Z,100640.69
2023-04-17T17:07:37.836Z,100647.34
2023-04-17T17:10:06.228Z,100642.25
2023-04-17T17:12:33.698Z,100632.53
2023-04-17T17:15:02.142Z,100642.06
2023-04-17T17:17:29.952Z,100640.69
2023-04-17T17:19:57.428Z,100640.50
2023-04-17T17:22:26.510Z,100642.78
2023-04-17T17:24:55.438Z,100643.28
2023-04-17T17:27:23.363Z,100643.03
2023-04-17T17:29:50.923Z,100642.31
2023-04-17T17:32:18.451Z,100651.09
2023-04-17T17:34:45.996Z,100653.19
2023-04-17T17:37:13.476Z,100651.19
2023-04-17T17:39:42.340Z,100640.47
2023-04-17T17:42:09.812Z,100639.75
2023-04-17T17:44:37.676Z,100644.88
2023-04-17T17:47:07.549Z,100654.34
2023-04-17T17:49:35.441Z,100648.09
2023-04-17T17:52:02.876Z,100656.13
2023-04-17T17:54:30.326Z,100655.69
2023-04-17T17:56:59.100Z,100650.50
2023-04-17T17:59:26.775Z,100653.41
2023-04-17T18:01:54.391Z,100657.91
2023-04-17T18:04:22.178Z,100645.59
2023-04-17T18:06:49.822Z,100656.84
2023-04-17T18:09:17.251Z,100649.16
2023-04-17T18:11:44.695Z,100649.09
2023-04-17T18:14:13.746Z,100658.34
2023-04-17T18:16:42.830Z,100652.75
2023-04-17T18:19:10.353Z,100656.69
2023-04-17T18:21:37.774Z,100653.53
2023-04-17T18:24:06.012Z,100656.28
2023-04-17T18:26:33.997Z,100657.41
2023-04-17T18:29:01.516Z,100665.28
2023-04-17T18:31:30.408Z,100667.38
2023-04-17T18:34:01.906Z,100666.13
2023-04-17T18:36:30.037Z,100666.59
2023-04-17T18:38:57.478Z,100666.78
2023-04-17T18:41:28.919Z,100672.44
2023-04-17T18:43:56.364Z,100666.31
2023-04-17T18:46:24.357Z,100664.19
2023-04-17T18:48:53.558Z,100660.47
2023-04-17T18:51:21.250Z,100670.16
2023-04-17T18:53:50.089Z,100670.00
2023-04-17T18:56:17.611Z,100666.88
2023-04-17T18:58:45.127Z,100672.59
2023-04-17T19:01:12.642Z,100668.44
2023-04-17T19:03:40.749Z,100665.81
2023-04-17T19:06:09.564Z,100674.72
2023-04-17T19:08:39.332Z,100672.78
2023-04-17T19:11:06.823Z,100673.31
2023-04-17T19:13:34.311Z,100676.75
2023-04-17T19:16:01.799Z,100675.72
2023-04-17T19:18:29.431Z,100668.72
2023-04-17T19:20:56.869Z,100676.16
2023-04-17T19:23:25.885Z,100678.97
2023-04-17T19:25:54.718Z,100672.56
2023-04-17T19:28:22.720Z,100675.41
2023-04-17T19:30:50.376Z,100681.75
2023-04-17T19:33:18.569Z,100678.91
2023-04-17T19:35:46.054Z,100672.41
2023-04-17T19:38:15.502Z,100678.16
2023-04-17T19:40:47.694Z,100673.19
2023-04-17T19:43:15.203Z,100682.75
2023-04-17T19:45:46.397Z,100674.00
2023-04-17T19:48:13.821Z,100670.81
2023-04-17T19:50:41.303Z,100678.22
2023-04-17T19:53:08.740Z,100673.38
2023-04-17T19:55:36.192Z,100672.13
2023-04-17T19:58:04.990Z,100681.03
2023-04-17T20:00:32.444Z,100680.41
2023-04-17T20:03:00.075Z,100679.28
2023-04-17T20:05:27.711Z,100676.22
2023-04-17T20:07:55.379Z,100686.56
2023-04-17T20:10:23.018Z,100693.41
2023-04-17T20:12:50.479Z,100676.44
2023-04-17T20:15:21.848Z,100686.28
2023-04-17T20:17:49.331Z,100683.34
2023-04-17T20:20:16.836Z,100679.88
2023-04-17T20:22:44.241Z,100681.13
2023-04-17T20:25:11.673Z,100681.88
2023-04-17T20:27:39.231Z,100687.53
2023-04-17T20:30:08.037Z,100691.25
2023-04-17T20:32:36.927Z,100685.47
2023-04-17T20:35:04.741Z,100680.13
2023-04-17T20:37:32.196Z,100676.78
2023-04-17T20:39:59.629Z,100678.88
2023-04-17T20:42:27.251Z,100678.78
2023-04-17T20:44:55.179Z,100678.41
2023-04-17T20:47:22.706Z,100680.19
2023-04-17T20:49:51.514Z,100677.22
2023-04-17T20:52:18.977Z,100677.66
2023-04-17T20:54:46.443Z,100678.03
2023-04-17T20:57:13.903Z,100669.63
2023-04-17T20:59:41.489Z,100674.25
2023-04-17T21:02:09.053Z,100666.50
2023-04-17T21:04:36.751Z,100669.09
2023-04-17T21:07:05.758Z,100672.56
2023-04-17T21:09:33.223Z,100674.53
2023-04-17T21:12:01.495Z,100669.22
2023-04-17T21:14:30.277Z,100674.00
2023-04-17T21:16:58.434Z,100672.94
2023-04-17T21:19:27.184Z,100676.38
2023-04-17T21:21:54.848Z,100680.13
2023-04-17T21:24:23.719Z,100683.63
2023-04-17T21:26:51.317Z,100690.13
2023-04-17T21:29:18.784Z,100676.41
2023-04-17T21:31:46.324Z,100683.03
2023-04-17T21:34:14.115Z,100682.81
2023-04-17T21:36:41.698Z,100680.91
2023-04-17T21:39:09.515Z,100682.00
2023-04-17T21:41:38.584Z,100680.56
2023-04-17T21:44:06.143Z,100685.72
2023-04-17T21:46:33.898Z,100688.06
2023-04-17T21:49:01.394Z,100689.13
2023-04-17T21:51:28.823Z,100685.25
2023-04-17T21:53:56.294Z,100686.56
2023-04-17T21:56:24.160Z,100690.44
2023-04-17T21:58:52.953Z,100682.69
2023-04-17T22:01:20.512Z,100684.72
2023-04-17T22:03:48.010Z,100678.84
2023-04-17T22:06:15.533Z,100688.94
2023-04-17T22:08:43.011Z,100688.50
2023-04-17T22:11:10.480Z,100692.81
2023-04-17T22:13:48.866Z,100688.91
2023-04-17T22:16:17.705Z,100690.69
2023-04-17T22:18:46.068Z,100686.06
2023-04-17T22:21:14.306Z,100693.06
2023-04-17T22:23:46.437Z,100689.47
2023-04-17T22:26:13.919Z,100696.75
2023-04-17T22:28:49.477Z,100687.88
2023-04-17T22:31:19.493Z,100689.53
2023-04-17T22:33:46.963Z,100691.09
2023-04-17T22:36:17.291Z,100691.75
2023-04-17T22:38:44.688Z,100694.75
2023-04-17T22:41:12.226Z,100686.34
2023-04-17T22:43:39.613Z,100695.66
2023-04-17T22:46:07.060Z,100692.91
2023-04-17T22:48:35.936Z,100698.53
2023-04-17T22:51:03.545Z,100705.16
2023-04-17T22:53:33.967Z,100697.91
2023-04-17T22:56:02.161Z,100704.69
2023-04-17T22:58:32.383Z,100701.38
2023-04-17T23:01:00.673Z,100706.91
2023-04-17T23:03:28.403Z,100699.25
2023-04-17T23:05:57.464Z,100707.66
2023-04-17T23:08:25.197Z,100707.84
2023-04-17T23:10:59.091Z,100719.19
2023-04-17T23:13:27.041Z,100707.78
2023-04-17T23:15:54.812Z,100714.75
2023-04-17T23:18:22.346Z,100705.31
2023-04-17T23:20:49.776Z,100713.97
2023-04-17T23:23:18.742Z,100705.44
2023-04-17T23:25:46.253Z,100706.16
2023-04-17T23:28:13.784Z,100713.22
2023-04-17T23:30:41.267Z,100713.47
2023-04-17T23:33:09.609Z,100712.91
2023-04-17T23:35:37.064Z,100714.97
2023-04-17T23:38:04.542Z,100714.50
2023-04-17T23:40:34.681Z,100714.81
2023-04-17T23:43:02.195Z,100715.63
2023-04-17T23:45:29.659Z,100716.06
2023-04-17T23:47:57.184Z,100721.88
2023-04-17T23:50:24.761Z,100724.78
2023-04-17T23:52:54.109Z,100726.53
2023-04-17T23:55:22.978Z,100721.56
2023-04-17T23:57:51.846Z,100721.75
